METAR Data
IDs: Format: Raw Decoded Include TAF

Data at: 0219 UTC 12 May 2021

KRCR 120215Z AUTO 33006KT 10SM CLR 06/00 A3038 RMK AO2
KRCR 120155Z AUTO 33005KT 10SM CLR 06/00 A3037 RMK AO2
KRCR 120135Z AUTO 33006KT 10SM CLR 07/00 A3036 RMK AO2
KRCR 120115Z AUTO 34004KT 10SM CLR 08/M01 A3035 RMK AO2
KRCR 120055Z AUTO 34006KT 10SM CLR 08/M01 A3034 RMK AO2
KRCR 120035Z AUTO 35005G09KT 10SM CLR 09/M02 A3033 RMK AO2
KRCR 120015Z AUTO 34008KT 10SM CLR 10/M02 A3033 RMK AO2
KRCR 112355Z AUTO 34006KT 10SM CLR 10/M02 A3032 RMK AO2
KRCR 112335Z AUTO 33010G15KT 10SM CLR 10/M02 A3032 RMK AO2
KRCR 112315Z AUTO 34007G14KT 10SM CLR 11/M02 A3032 RMK AO2
KRCR 112255Z AUTO 35011G15KT 10SM CLR 11/M03 A3031 RMK AO2
KRCR 112235Z AUTO 36009G14KT 10SM CLR 11/M02 A3031 RMK AO2
KRCR 112215Z AUTO 35012G19KT 10SM CLR 11/M02 A3031 RMK AO2
KRCR 112155Z AUTO 34013G17KT 10SM CLR 12/M01 A3030 RMK AO2
KRCR 112135Z AUTO 35009G19KT 10SM CLR 12/M02 A3030 RMK AO2
KRCR 112115Z AUTO 34012G18KT 10SM CLR 12/M01 A3031 RMK AO2
KRCR 112055Z AUTO 33011G20KT 10SM CLR 12/M01 A3030 RMK AO2
KRCR 112035Z AUTO 35014G21KT 10SM CLR 12/M01 A3030 RMK AO2
KRCR 112015Z AUTO 34012G18KT 10SM SCT055 12/M02 A3031 RMK AO2
KRCR 111955Z AUTO 35011G17KT 10SM SCT055 13/00 A3031 RMK AO2
KRCR 111935Z AUTO 35011G19KT 10SM SCT055 13/M01 A3031 RMK AO2
KRCR 111915Z AUTO 34010G18KT 10SM SCT055 13/00 A3031 RMK AO2
KRCR 111850Z AUTO 01010G18KT 10SM SCT055 12/M01 A3032 RMK AO2
KRCR 111835Z AUTO 36011G16KT 10SM SCT055 12/M01 A3032 RMK AO2
KRCR 111815Z AUTO 34009G18KT 10SM SCT060 SCT065 12/M01 A3032 RMK AO2
KRCR 111755Z AUTO 34011G20KT 10SM SCT060 12/00 A3033 RMK AO2
KRCR 111735Z AUTO 34012G19KT 10SM SCT050 12/00 A3033 RMK AO2
KRCR 111715Z AUTO 34009G21KT 10SM SCT050 SCT060 11/00 A3034 RMK AO2
KRCR 111655Z AUTO 33013G18KT 10SM SCT044 SCT060 12/M01 A3034 RMK AO2
KRCR 111635Z AUTO 36007G15KT 10SM SCT046 SCT050 12/01 A3034 RMK AO2
KRCR 111615Z AUTO 35008G14KT 10SM SCT045 SCT050 11/00 A3033 RMK AO2
KRCR 111555Z AUTO 03007G14KT 10SM SCT041 10/00 A3034 RMK AO2
KRCR 111535Z AUTO 35008KT 10SM CLR 10/00 A3034 RMK AO2
KRCR 111515Z AUTO 01006KT 10SM CLR 10/00 A3034 RMK AO2
KRCR 111455Z AUTO 01008KT 10SM CLR 10/00 A3033 RMK AO2
KRCR 111435Z AUTO 01008G14KT 10SM CLR 09/00 A3033 RMK AO2
KRCR 111415Z AUTO 01009G14KT 10SM CLR 08/00 A3033 RMK AO2
KRCR 111355Z AUTO 05007G14KT 10SM CLR 08/00 A3032 RMK AO2
KRCR 111335Z AUTO 02005KT 10SM CLR 08/00 A3032 RMK AO2
KRCR 111315Z AUTO 06007KT 10SM CLR 07/00 A3031 RMK AO2
KRCR 111255Z AUTO 04007KT 10SM CLR 07/00 A3031 RMK AO2
KRCR 111235Z AUTO 05007KT 10SM CLR 06/00 A3030 RMK AO2
KRCR 111215Z AUTO 05005KT 10SM CLR 06/00 A3030 RMK AO2
KRCR 111155Z AUTO 01006KT 10SM CLR 05/00 A3030 RMK AO2
KRCR 111135Z AUTO 01004KT 10SM CLR 05/01 A3029 RMK AO2
KRCR 111115Z AUTO 36003KT 10SM SCT090 04/01 A3028 RMK AO2
KRCR 111055Z AUTO 00000KT 10SM SCT090 04/00 A3027 RMK AO2
KRCR 111035Z AUTO 36003KT 10SM SCT110 04/00 A3026 RMK AO2
KRCR 111015Z AUTO 01005KT 10SM SCT110 05/01 A3025 RMK AO2
KRCR 110955Z AUTO 36003KT 10SM SCT090 SCT120 05/01 A3025 RMK AO2
KRCR 110935Z AUTO 36003KT 10SM SCT090 SCT120 05/01 A3024 RMK AO2
KRCR 110915Z AUTO 36003KT 10SM SCT090 04/01 A3024 RMK AO2
KRCR 110855Z AUTO 00000KT 10SM SCT090 05/00 A3023 RMK AO2
KRCR 110835Z AUTO 00000KT 10SM SCT120 05/00 A3023 RMK AO2
KRCR 110815Z AUTO 00000KT 10SM SCT110 05/00 A3023 RMK AO2
KRCR 110755Z AUTO 36004KT 10SM SCT110 06/00 A3022 RMK AO2
KRCR 110735Z AUTO 36004KT 10SM CLR 06/00 A3022 RMK AO2
KRCR 110720Z AUTO 36004KT 10SM CLR 06/00 A3022 RMK AO2
KRCR 110655Z AUTO 36004KT 10SM CLR 06/00 A3022 RMK AO2
KRCR 110635Z AUTO 36003KT 10SM CLR 06/M01 A3020 RMK AO2
KRCR 110615Z AUTO 36004KT 10SM CLR 06/M01 A3020 RMK AO2
KRCR 110555Z AUTO 36005KT 10SM SCT100 06/M01 A3020 RMK AO2
KRCR 110535Z AUTO 01005KT 10SM SCT100 07/00 A3020 RMK AO2
KRCR 110515Z AUTO 35005KT 10SM SCT100 07/00 A3020 RMK AO2
KRCR 110455Z AUTO 36005KT 10SM CLR 07/00 A3020 RMK AO2
KRCR 110435Z AUTO 35004KT 10SM CLR 08/01 A3020 RMK AO2
KRCR 110415Z AUTO 35005KT 10SM SCT044 08/01 A3020 RMK AO2
KRCR 110355Z AUTO 35003KT 10SM SCT043 08/01 A3020 RMK AO2
KRCR 110335Z AUTO 35003KT 10SM CLR 08/01 A3020 RMK AO2
KRCR 110315Z AUTO 36004KT 10SM CLR 08/01 A3019 RMK AO2
KRCR 110255Z AUTO 36006KT 10SM CLR 09/01 A3019 RMK AO2
KRCR 110235Z AUTO 36006KT 10SM SCT060 SCT070 09/02 A3018 RMK AO2
KRCR 110215Z AUTO 35008KT 10SM SCT060 SCT070 10/03 A3018 RMK AO2
KRCR 110155Z AUTO 01007KT 10SM SCT060 10/03 A3017 RMK AO2
KRCR 110135Z AUTO 01006KT 10SM -RA SCT038 SCT060 10/03 A3016 RMK AO2
KRCR 110115Z AUTO 35005KT 10SM BKN038 11/03 A3016 RMK AO2
KRCR 110055Z AUTO 36005KT 10SM BKN038 11/03 A3015 RMK AO2
KRCR 110035Z AUTO 02004KT 10SM BKN038 11/05 A3015 RMK AO2
KRCR 110015Z AUTO 00000KT 10SM OVC036 11/07 A3015 RMK AO2
KRCR 102355Z AUTO 26003KT 10SM OVC037 11/07 A3014 RMK AO2
KRCR 102335Z AUTO 23004KT 10SM OVC039 11/07 A3014 RMK AO2
KRCR 102315Z AUTO 24007KT 10SM BKN041 BKN050 12/05 A3014 RMK AO2
KRCR 102255Z AUTO 01003KT 10SM BKN046 BKN050 BKN060 13/05 A3012 RMK AO2
KRCR 102235Z AUTO 01009KT 330V030 10SM -RA OVC046 13/05 A3012 RMK AO2
KRCR 102215Z AUTO 24004KT 10SM BKN048 BKN065 BKN075 13/03 A3011 RMK AO2
KRCR 102155Z AUTO 33004KT 10SM SCT055 SCT065 15/02 A3010 RMK AO2
KRCR 102135Z AUTO 30004KT 10SM SCT011 SCT025 SCT046 13/03 A3011 RMK AO2
KRCR 102115Z AUTO 32004KT 10SM -RA SCT011 SCT025 BKN055 13/03 A3011 RMK AO2
KRCR 102055Z AUTO 27007KT 10SM BKN055 BKN065 14/02 A3012 RMK AO2
KRCR 102035Z AUTO 31007KT 10SM SCT050 SCT065 15/02 A3012 RMK AO2
KRCR 102015Z AUTO 32008KT 10SM SCT050 14/02 A3012 RMK AO2
KRCR 101955Z AUTO 27006KT 10SM SCT050 14/02 A3012 RMK AO2
KRCR 101935Z AUTO 29006KT 10SM SCT048 SCT060 15/02 A3013 RMK AO2
KRCR 101915Z AUTO 29008KT 10SM SCT048 SCT090 13/01 A3013 RMK AO2
KRCR 101855Z AUTO 28006KT 10SM SCT070 13/02 A3013 RMK AO2
KRCR 101835Z AUTO 28005KT 10SM SCT070 12/01 A3014 RMK AO2
KRCR 101815Z AUTO 30007KT 10SM -DZ CLR 12/02 A3015 RMK AO2
KRCR 101755Z AUTO 32012KT 10SM SCT050 12/00 A3014 RMK AO2
KRCR 101735Z AUTO 32007KT 10SM SCT050 13/01 A3014 RMK AO2
KRCR 101715Z AUTO 31006KT 10SM SCT070 13/02 A3014 RMK AO2
KRCR 101655Z AUTO 32007KT 10SM SCT070 13/01 A3014 RMK AO2
KRCR 101635Z AUTO 27006KT 10SM CLR 13/03 A3014 RMK AO2
KRCR 101615Z AUTO 00000KT 10SM CLR 13/04 A3014 RMK AO2
KRCR 101555Z AUTO 27008KT 10SM CLR 12/04 A3014 RMK AO2
KRCR 101535Z AUTO 31006KT 10SM CLR 12/04 A3013 RMK AO2
KRCR 101515Z AUTO 23003KT 10SM CLR 11/03 A3013 RMK AO2
KRCR 101455Z AUTO 28006KT 10SM CLR 10/03 A3012 RMK AO2
KRCR 101435Z AUTO 31004KT 10SM CLR 10/03 A3012 RMK AO2